sensor_id;sensor_type;location;lat;lon;timestamp;temperature;humidity
13426;DHT22;6785;57.918;12.530;2022-07-01T00:00:20;18.90;99.90
13426;DHT22;6785;57.918;12.530;2022-07-01T00:02:48;18.90;99.90
13426;DHT22;6785;57.918;12.530;2022-07-01T00:05:15;18.90;99.90
13426;DHT22;6785;57.918;12.530;2022-07-01T00:07:42;18.80;99.90
13426;DHT22;6785;57.918;12.530;2022-07-01T00:10:09;18.80;99.90
13426;DHT22;6785;57.918;12.530;2022-07-01T00:12:36;18.80;99.90
13426;DHT22;6785;57.918;12.530;2022-07-01T00:15:04;18.80;99.90
13426;DHT22;6785;57.918;12.530;2022-07-01T00:17:30;18.80;99.90
13426;DHT22;6785;57.918;12.530;2022-07-01T00:19:59;18.70;99.90
13426;DHT22;6785;57.918;12.530;2022-07-01T00:22:25;18.60;99.90
13426;DHT22;6785;57.918;12.530;2022-07-01T00:24:53;18.60;99.90
13426;DHT22;6785;57.918;12.530;2022-07-01T00:27:20;18.60;99.90
13426;DHT22;6785;57.918;12.530;2022-07-01T00:29:47;18.60;99.90
13426;DHT22;6785;57.918;12.530;2022-07-01T00:32:14;18.60;99.90
13426;DHT22;6785;57.918;12.530;2022-07-01T00:34:40;18.60;99.90
13426;DHT22;6785;57.918;12.530;2022-07-01T00:37:09;18.60;99.90
13426;DHT22;6785;57.918;12.530;2022-07-01T00:39:35;18.60;99.90
13426;DHT22;6785;57.918;12.530;2022-07-01T00:42:03;18.60;99.90
13426;DHT22;6785;57.918;12.530;2022-07-01T00:44:31;18.60;99.90
13426;DHT22;6785;57.918;12.530;2022-07-01T00:47:01;18.60;99.90
13426;DHT22;6785;57.918;12.530;2022-07-01T00:49:29;18.50;99.90
13426;DHT22;6785;57.918;12.530;2022-07-01T00:51:56;18.50;99.90
13426;DHT22;6785;57.918;12.530;2022-07-01T00:54:25;18.50;99.90
13426;DHT22;6785;57.918;12.530;2022-07-01T00:56:52;18.40;99.90
13426;DHT22;6785;57.918;12.530;2022-07-01T00:59:20;18.50;99.90
13426;DHT22;6785;57.918;12.530;2022-07-01T01:01:47;18.40;99.90
13426;DHT22;6785;57.918;12.530;2022-07-01T01:04:14;18.30;99.90
13426;DHT22;6785;57.918;12.530;2022-07-01T01:06:41;18.30;99.90
13426;DHT22;6785;57.918;12.530;2022-07-01T01:09:08;18.30;99.90
13426;DHT22;6785;57.918;12.530;2022-07-01T01:11:37;18.30;99.90
13426;DHT22;6785;57.918;12.530;2022-07-01T01:14:04;18.20;99.90
13426;DHT22;6785;57.918;12.530;2022-07-01T01:16:31;18.20;99.90
13426;DHT22;6785;57.918;12.530;2022-07-01T01:18:59;18.20;99.90
13426;DHT22;6785;57.918;12.530;2022-07-01T01:21:29;18.30;99.90
13426;DHT22;6785;57.918;12.530;2022-07-01T01:23:57;18.20;99.90
13426;DHT22;6785;57.918;12.530;2022-07-01T01:26:24;18.20;99.90
13426;DHT22;6785;57.918;12.530;2022-07-01T01:28:52;18.20;99.90
13426;DHT22;6785;57.918;12.530;2022-07-01T01:31:27;18.20;99.90
13426;DHT22;6785;57.918;12.530;2022-07-01T01:33:55;18.20;99.90
13426;DHT22;6785;57.918;12.530;2022-07-01T01:36:22;18.20;99.90
13426;DHT22;6785;57.918;12.530;2022-07-01T01:38:50;18.30;99.90
13426;DHT22;6785;57.918;12.530;2022-07-01T01:41:17;18.20;99.90
13426;DHT22;6785;57.918;12.530;2022-07-01T01:43:44;18.20;99.90
13426;DHT22;6785;57.918;12.530;2022-07-01T01:46:10;18.20;99.90
13426;DHT22;6785;57.918;12.530;2022-07-01T01:48:37;18.20;99.90
13426;DHT22;6785;57.918;12.530;2022-07-01T01:51:04;18.20;99.90
13426;DHT22;6785;57.918;12.530;2022-07-01T01:53:31;18.20;99.90
13426;DHT22;6785;57.918;12.530;2022-07-01T01:55:59;18.20;99.90
13426;DHT22;6785;57.918;12.530;2022-07-01T01:58:26;18.20;99.90
13426;DHT22;6785;57.918;12.530;2022-07-01T02:00:53;18.20;99.90
13426;DHT22;6785;57.918;12.530;2022-07-01T02:03:20;18.10;99.90
13426;DHT22;6785;57.918;12.530;2022-07-01T02:05:46;18.10;99.90
13426;DHT22;6785;57.918;12.530;2022-07-01T02:08:13;18.10;99.90
13426;DHT22;6785;57.918;12.530;2022-07-01T02:10:40;18.10;99.90
13426;DHT22;6785;57.918;12.530;2022-07-01T02:13:08;18.10;99.90
13426;DHT22;6785;57.918;12.530;2022-07-01T02:15:35;18.00;99.90
13426;DHT22;6785;57.918;12.530;2022-07-01T02:18:03;18.00;99.90
13426;DHT22;6785;57.918;12.530;2022-07-01T02:20:31;18.00;99.90
13426;DHT22;6785;57.918;12.530;2022-07-01T02:22:58;18.00;99.90
13426;DHT22;6785;57.918;12.530;2022-07-01T02:25:25;18.00;99.90
13426;DHT22;6785;57.918;12.530;2022-07-01T02:27:51;17.90;99.90
13426;DHT22;6785;57.918;12.530;2022-07-01T02:30:20;17.90;99.90
13426;DHT22;6785;57.918;12.530;2022-07-01T02:32:46;17.80;99.90
13426;DHT22;6785;57.918;12.530;2022-07-01T02:35:13;17.80;99.90
13426;DHT22;6785;57.918;12.530;2022-07-01T02:37:40;17.80;99.90
13426;DHT22;6785;57.918;12.530;2022-07-01T02:40:08;17.80;99.90
13426;DHT22;6785;57.918;12.530;2022-07-01T02:42:35;17.70;99.90
13426;DHT22;6785;57.918;12.530;2022-07-01T02:45:04;17.70;99.90
13426;DHT22;6785;57.918;12.530;2022-07-01T02:47:33;17.70;99.90
13426;DHT22;6785;57.918;12.530;2022-07-01T02:50:00;17.70;99.90
13426;DHT22;6785;57.918;12.530;2022-07-01T02:52:27;17.70;99.90
13426;DHT22;6785;57.918;12.530;2022-07-01T02:54:54;17.70;99.90
13426;DHT22;6785;57.918;12.530;2022-07-01T02:57:22;17.70;99.90
13426;DHT22;6785;57.918;12.530;2022-07-01T02:59:49;17.60;99.90
13426;DHT22;6785;57.918;12.530;2022-07-01T03:02:16;17.60;99.90
13426;DHT22;6785;57.918;12.530;2022-07-01T03:04:46;17.60;99.90
13426;DHT22;6785;57.918;12.530;2022-07-01T03:07:13;17.60;99.90
13426;DHT22;6785;57.918;12.530;2022-07-01T03:09:40;17.60;99.90
13426;DHT22;6785;57.918;12.530;2022-07-01T03:12:08;17.60;99.90
13426;DHT22;6785;57.918;12.530;2022-07-01T03:14:48;17.60;99.90
13426;DHT22;6785;57.918;12.530;2022-07-01T03:17:16;17.60;99.90
13426;DHT22;6785;57.918;12.530;2022-07-01T03:19:45;17.60;99.90
13426;DHT22;6785;57.918;12.530;2022-07-01T03:22:12;17.60;99.90
13426;DHT22;6785;57.918;12.530;2022-07-01T03:24:39;17.60;99.90
13426;DHT22;6785;57.918;12.530;2022-07-01T03:27:05;17.60;99.90
13426;DHT22;6785;57.918;12.530;2022-07-01T03:29:33;17.70;99.90
13426;DHT22;6785;57.918;12.530;2022-07-01T03:32:00;17.60;99.90
13426;DHT22;6785;57.918;12.530;2022-07-01T03:34:26;17.70;99.90
13426;DHT22;6785;57.918;12.530;2022-07-01T03:36:55;17.80;99.90
13426;DHT22;6785;57.918;12.530;2022-07-01T03:39:21;17.90;99.90
13426;DHT22;6785;57.918;12.530;2022-07-01T03:41:49;18.10;99.90
13426;DHT22;6785;57.918;12.530;2022-07-01T03:44:16;18.20;99.90
13426;DHT22;6785;57.918;12.530;2022-07-01T03:46:43;18.30;99.90
13426;DHT22;6785;57.918;12.530;2022-07-01T03:49:09;18.50;99.90
13426;DHT22;6785;57.918;12.530;2022-07-01T03:51:36;18.70;99.90
13426;DHT22;6785;57.918;12.530;2022-07-01T03:54:05;18.90;99.90
13426;DHT22;6785;57.918;12.530;2022-07-01T03:56:49;19.00;99.90
13426;DHT22;6785;57.918;12.530;2022-07-01T03:59:16;19.20;99.90
13426;DHT22;6785;57.918;12.530;2022-07-01T04:01:43;19.30;99.90
13426;DHT22;6785;57.918;12.530;2022-07-01T04:04:09;19.40;99.90
13426;DHT22;6785;57.918;12.530;2022-07-01T04:06:37;19.60;99.90
13426;DHT22;6785;57.918;12.530;2022-07-01T04:09:05;19.70;99.90
13426;DHT22;6785;57.918;12.530;2022-07-01T04:11:32;19.80;99.90
13426;DHT22;6785;57.918;12.530;2022-07-01T04:13:59;19.90;99.90
13426;DHT22;6785;57.918;12.530;2022-07-01T04:16:26;20.00;99.90
13426;DHT22;6785;57.918;12.530;2022-07-01T04:18:53;20.00;99.90
13426;DHT22;6785;57.918;12.530;2022-07-01T04:21:20;20.10;99.90
13426;DHT22;6785;57.918;12.530;2022-07-01T04:24:06;20.10;99.90
13426;DHT22;6785;57.918;12.530;2022-07-01T04:26:34;20.00;99.90
13426;DHT22;6785;57.918;12.530;2022-07-01T04:29:01;20.00;99.90
13426;DHT22;6785;57.918;12.530;2022-07-01T04:31:28;20.00;99.90
13426;DHT22;6785;57.918;12.530;2022-07-01T04:33:55;20.10;99.90
13426;DHT22;6785;57.918;12.530;2022-07-01T04:36:22;20.10;99.90
13426;DHT22;6785;57.918;12.530;2022-07-01T04:38:49;20.00;99.90
13426;DHT22;6785;57.918;12.530;2022-07-01T04:41:17;20.00;99.90
13426;DHT22;6785;57.918;12.530;2022-07-01T04:44:02;20.00;99.90
13426;DHT22;6785;57.918;12.530;2022-07-01T04:46:29;20.10;99.90
13426;DHT22;6785;57.918;12.530;2022-07-01T04:48:56;20.10;99.90
13426;DHT22;6785;57.918;12.530;2022-07-01T04:51:23;20.20;99.90
13426;DHT22;6785;57.918;12.530;2022-07-01T04:53:50;20.20;99.90
13426;DHT22;6785;57.918;12.530;2022-07-01T04:56:18;20.30;99.90
13426;DHT22;6785;57.918;12.530;2022-07-01T04:58:46;20.30;99.90
13426;DHT22;6785;57.918;12.530;2022-07-01T05:01:13;20.40;99.90
13426;DHT22;6785;57.918;12.530;2022-07-01T05:03:39;20.40;99.90
13426;DHT22;6785;57.918;12.530;2022-07-01T05:06:06;20.40;99.90
13426;DHT22;6785;57.918;12.530;2022-07-01T05:08:33;20.40;99.90
13426;DHT22;6785;57.918;12.530;2022-07-01T05:11:00;20.40;99.90
13426;DHT22;6785;57.918;12.530;2022-07-01T05:13:28;20.40;99.90
13426;DHT22;6785;57.918;12.530;2022-07-01T05:15:55;20.40;99.90
13426;DHT22;6785;57.918;12.530;2022-07-01T05:18:22;20.40;99.90
13426;DHT22;6785;57.918;12.530;2022-07-01T05:21:06;20.40;99.90
13426;DHT22;6785;57.918;12.530;2022-07-01T05:23:50;20.50;99.90
13426;DHT22;6785;57.918;12.530;2022-07-01T05:26:17;20.60;99.90
13426;DHT22;6785;57.918;12.530;2022-07-01T05:28:46;20.60;99.90
13426;DHT22;6785;57.918;12.530;2022-07-01T05:31:13;20.60;99.90
13426;DHT22;6785;57.918;12.530;2022-07-01T05:33:40;20.60;99.90
13426;DHT22;6785;57.918;12.530;2022-07-01T05:36:07;20.60;99.90
13426;DHT22;6785;57.918;12.530;2022-07-01T05:38:34;20.70;99.90
13426;DHT22;6785;57.918;12.530;2022-07-01T05:41:01;20.70;99.90
13426;DHT22;6785;57.918;12.530;2022-07-01T05:43:29;20.70;99.90
13426;DHT22;6785;57.918;12.530;2022-07-01T05:45:57;20.80;99.90
13426;DHT22;6785;57.918;12.530;2022-07-01T05:48:24;20.90;99.90
13426;DHT22;6785;57.918;12.530;2022-07-01T05:50:51;21.00;99.90
13426;DHT22;6785;57.918;12.530;2022-07-01T05:53:18;21.00;99.90
13426;DHT22;6785;57.918;12.530;2022-07-01T05:55:45;21.00;99.90
13426;DHT22;6785;57.918;12.530;2022-07-01T05:58:12;21.10;99.90
13426;DHT22;6785;57.918;12.530;2022-07-01T06:00:40;21.30;99.90
13426;DHT22;6785;57.918;12.530;2022-07-01T06:03:09;21.40;99.90
13426;DHT22;6785;57.918;12.530;2022-07-01T06:05:36;21.30;99.90
13426;DHT22;6785;57.918;12.530;2022-07-01T06:08:04;21.40;99.90
13426;DHT22;6785;57.918;12.530;2022-07-01T06:10:31;21.40;99.90
13426;DHT22;6785;57.918;12.530;2022-07-01T06:12:58;21.50;99.90
13426;DHT22;6785;57.918;12.530;2022-07-01T06:15:26;21.60;99.90
13426;DHT22;6785;57.918;12.530;2022-07-01T06:17:53;21.70;99.90
13426;DHT22;6785;57.918;12.530;2022-07-01T06:20:21;21.80;99.90
13426;DHT22;6785;57.918;12.530;2022-07-01T06:22:48;21.90;99.90
13426;DHT22;6785;57.918;12.530;2022-07-01T06:25:15;22.00;99.90
13426;DHT22;6785;57.918;12.530;2022-07-01T06:27:43;22.20;99.90
13426;DHT22;6785;57.918;12.530;2022-07-01T06:30:12;22.40;99.90
13426;DHT22;6785;57.918;12.530;2022-07-01T06:32:39;22.50;99.90
13426;DHT22;6785;57.918;12.530;2022-07-01T06:35:07;22.50;99.90
13426;DHT22;6785;57.918;12.530;2022-07-01T06:37:35;22.70;99.90
13426;DHT22;6785;57.918;12.530;2022-07-01T06:40:03;22.80;99.90
13426;DHT22;6785;57.918;12.530;2022-07-01T06:42:31;23.10;99.90
13426;DHT22;6785;57.918;12.530;2022-07-01T06:44:58;23.30;99.90
13426;DHT22;6785;57.918;12.530;2022-07-01T06:47:25;23.30;99.90
13426;DHT22;6785;57.918;12.530;2022-07-01T06:49:51;23.40;99.90
13426;DHT22;6785;57.918;12.530;2022-07-01T06:52:18;23.40;99.90
13426;DHT22;6785;57.918;12.530;2022-07-01T06:54:47;23.40;99.90
13426;DHT22;6785;57.918;12.530;2022-07-01T06:57:13;23.70;99.90
13426;DHT22;6785;57.918;12.530;2022-07-01T06:59:40;23.90;99.90
13426;DHT22;6785;57.918;12.530;2022-07-01T07:02:07;23.70;99.90
13426;DHT22;6785;57.918;12.530;2022-07-01T07:04:34;23.90;99.90
13426;DHT22;6785;57.918;12.530;2022-07-01T07:07:01;24.10;99.90
13426;DHT22;6785;57.918;12.530;2022-07-01T07:09:29;24.20;99.90
13426;DHT22;6785;57.918;12.530;2022-07-01T07:11:57;24.40;99.90
13426;DHT22;6785;57.918;12.530;2022-07-01T07:14:24;24.60;99.90
13426;DHT22;6785;57.918;12.530;2022-07-01T07:16:50;24.80;99.90
13426;DHT22;6785;57.918;12.530;2022-07-01T07:19:19;25.10;99.90
13426;DHT22;6785;57.918;12.530;2022-07-01T07:21:46;25.10;99.90
13426;DHT22;6785;57.918;12.530;2022-07-01T07:24:13;25.00;99.90
13426;DHT22;6785;57.918;12.530;2022-07-01T07:26:40;25.10;99.90
13426;DHT22;6785;57.918;12.530;2022-07-01T07:29:09;25.20;99.90
13426;DHT22;6785;57.918;12.530;2022-07-01T07:31:36;25.50;99.90
13426;DHT22;6785;57.918;12.530;2022-07-01T07:34:03;25.80;99.90
13426;DHT22;6785;57.918;12.530;2022-07-01T07:36:30;25.60;99.90
13426;DHT22;6785;57.918;12.530;2022-07-01T07:38:57;25.80;99.90
13426;DHT22;6785;57.918;12.530;2022-07-01T07:41:25;26.10;99.90
13426;DHT22;6785;57.918;12.530;2022-07-01T07:43:51;26.40;99.90
13426;DHT22;6785;57.918;12.530;2022-07-01T07:46:20;26.40;99.90
13426;DHT22;6785;57.918;12.530;2022-07-01T07:48:46;26.30;99.90
13426;DHT22;6785;57.918;12.530;2022-07-01T07:51:13;26.30;99.90
13426;DHT22;6785;57.918;12.530;2022-07-01T07:53:43;26.20;99.90
13426;DHT22;6785;57.918;12.530;2022-07-01T07:56:10;26.30;99.90
13426;DHT22;6785;57.918;12.530;2022-07-01T07:58:37;26.50;99.90
13426;DHT22;6785;57.918;12.530;2022-07-01T08:01:07;26.50;99.90
13426;DHT22;6785;57.918;12.530;2022-07-01T08:03:36;26.50;99.90
13426;DHT22;6785;57.918;12.530;2022-07-01T08:06:03;26.80;99.90
13426;DHT22;6785;57.918;12.530;2022-07-01T08:08:31;26.90;99.90
13426;DHT22;6785;57.918;12.530;2022-07-01T08:10:58;27.10;99.90
13426;DHT22;6785;57.918;12.530;2022-07-01T08:13:25;27.30;99.90
13426;DHT22;6785;57.918;12.530;2022-07-01T08:15:52;27.30;99.90
13426;DHT22;6785;57.918;12.530;2022-07-01T08:18:18;27.20;99.90
13426;DHT22;6785;57.918;12.530;2022-07-01T08:20:47;27.30;99.90
13426;DHT22;6785;57.918;12.530;2022-07-01T08:23:16;27.00;99.90
13426;DHT22;6785;57.918;12.530;2022-07-01T08:25:43;26.90;99.90
13426;DHT22;6785;57.918;12.530;2022-07-01T08:28:10;27.20;99.90
13426;DHT22;6785;57.918;12.530;2022-07-01T08:30:36;27.00;99.90
13426;DHT22;6785;57.918;12.530;2022-07-01T08:33:04;26.90;99.90
13426;DHT22;6785;57.918;12.530;2022-07-01T08:35:31;26.90;99.90
13426;DHT22;6785;57.918;12.530;2022-07-01T08:37:59;27.00;99.90
13426;DHT22;6785;57.918;12.530;2022-07-01T08:40:27;27.20;99.90
13426;DHT22;6785;57.918;12.530;2022-07-01T08:42:58;26.80;99.90
13426;DHT22;6785;57.918;12.530;2022-07-01T08:45:26;26.60;99.90
13426;DHT22;6785;57.918;12.530;2022-07-01T08:47:54;26.80;99.90
13426;DHT22;6785;57.918;12.530;2022-07-01T08:50:23;27.00;99.90
13426;DHT22;6785;57.918;12.530;2022-07-01T08:52:51;27.30;99.90
13426;DHT22;6785;57.918;12.530;2022-07-01T08:55:21;27.50;99.90
13426;DHT22;6785;57.918;12.530;2022-07-01T08:57:48;27.50;99.90
13426;DHT22;6785;57.918;12.530;2022-07-01T09:00:16;27.60;99.90
13426;DHT22;6785;57.918;12.530;2022-07-01T09:02:54;27.50;99.90
13426;DHT22;6785;57.918;12.530;2022-07-01T09:05:22;27.20;99.90
13426;DHT22;6785;57.918;12.530;2022-07-01T09:07:55;27.10;99.90
13426;DHT22;6785;57.918;12.530;2022-07-01T09:10:24;27.40;99.90
13426;DHT22;6785;57.918;12.530;2022-07-01T09:12:51;27.20;99.90
13426;DHT22;6785;57.918;12.530;2022-07-01T09:15:25;27.20;99.90
13426;DHT22;6785;57.918;12.530;2022-07-01T09:17:54;27.30;99.90
13426;DHT22;6785;57.918;12.530;2022-07-01T09:20:29;27.20;99.90
13426;DHT22;6785;57.918;12.530;2022-07-01T09:22:58;26.80;99.90
13426;DHT22;6785;57.918;12.530;2022-07-01T09:25:32;26.80;99.90
13426;DHT22;6785;57.918;12.530;2022-07-01T09:28:06;27.00;99.90
13426;DHT22;6785;57.918;12.530;2022-07-01T09:30:33;27.00;99.90
13426;DHT22;6785;57.918;12.530;2022-07-01T09:33:19;26.90;99.90
13426;DHT22;6785;57.918;12.530;2022-07-01T09:35:47;26.90;99.90
13426;DHT22;6785;57.918;12.530;2022-07-01T09:38:16;27.00;99.90
13426;DHT22;6785;57.918;12.530;2022-07-01T09:40:53;26.90;99.90
13426;DHT22;6785;57.918;12.530;2022-07-01T09:43:22;26.90;99.90
13426;DHT22;6785;57.918;12.530;2022-07-01T09:46:00;27.10;99.90
13426;DHT22;6785;57.918;12.530;2022-07-01T09:48:42;27.20;99.90
13426;DHT22;6785;57.918;12.530;2022-07-01T09:51:10;27.30;99.90
13426;DHT22;6785;57.918;12.530;2022-07-01T09:53:37;27.20;99.90
13426;DHT22;6785;57.918;12.530;2022-07-01T09:56:06;27.20;99.90
13426;DHT22;6785;57.918;12.530;2022-07-01T09:58:32;27.20;99.90
13426;DHT22;6785;57.918;12.530;2022-07-01T10:01:02;27.20;99.90
13426;DHT22;6785;57.918;12.530;2022-07-01T10:03:31;27.10;99.90
13426;DHT22;6785;57.918;12.530;2022-07-01T10:06:18;26.70;99.90
13426;DHT22;6785;57.918;12.530;2022-07-01T10:08:59;26.40;99.90
13426;DHT22;6785;57.918;12.530;2022-07-01T10:11:47;26.20;99.90
13426;DHT22;6785;57.918;12.530;2022-07-01T10:14:19;25.80;99.90
13426;DHT22;6785;57.918;12.530;2022-07-01T10:16:46;25.60;99.90
13426;DHT22;6785;57.918;12.530;2022-07-01T10:19:30;25.30;99.90
13426;DHT22;6785;57.918;12.530;2022-07-01T10:22:00;25.20;99.90
13426;DHT22;6785;57.918;12.530;2022-07-01T10:24:28;24.80;99.90
13426;DHT22;6785;57.918;12.530;2022-07-01T10:27:01;24.60;99.90
13426;DHT22;6785;57.918;12.530;2022-07-01T10:29:30;24.70;99.90
13426;DHT22;6785;57.918;12.530;2022-07-01T10:32:02;24.90;99.90
13426;DHT22;6785;57.918;12.530;2022-07-01T10:34:40;25.00;99.90
13426;DHT22;6785;57.918;12.530;2022-07-01T10:37:09;25.00;99.90
13426;DHT22;6785;57.918;12.530;2022-07-01T10:40:03;24.90;99.90
13426;DHT22;6785;57.918;12.530;2022-07-01T10:42:34;25.00;99.90
13426;DHT22;6785;57.918;12.530;2022-07-01T10:45:10;24.70;99.90
13426;DHT22;6785;57.918;12.530;2022-07-01T10:47:38;24.60;99.90
13426;DHT22;6785;57.918;12.530;2022-07-01T10:50:07;24.90;99.90
13426;DHT22;6785;57.918;12.530;2022-07-01T10:52:34;25.10;99.90
13426;DHT22;6785;57.918;12.530;2022-07-01T10:55:03;25.30;99.90
13426;DHT22;6785;57.918;12.530;2022-07-01T10:57:40;25.80;99.90
13426;DHT22;6785;57.918;12.530;2022-07-01T11:00:27;26.20;99.90
13426;DHT22;6785;57.918;12.530;2022-07-01T11:03:06;26.20;99.90
13426;DHT22;6785;57.918;12.530;2022-07-01T11:05:34;25.90;99.90
13426;DHT22;6785;57.918;12.530;2022-07-01T11:08:03;26.00;99.90
13426;DHT22;6785;57.918;12.530;2022-07-01T11:10:30;26.20;99.90
13426;DHT22;6785;57.918;12.530;2022-07-01T11:12:59;26.30;99.90
13426;DHT22;6785;57.918;12.530;2022-07-01T11:15:26;26.60;99.90
13426;DHT22;6785;57.918;12.530;2022-07-01T11:17:55;26.70;99.90
13426;DHT22;6785;57.918;12.530;2022-07-01T11:20:23;26.80;99.90
13426;DHT22;6785;57.918;12.530;2022-07-01T11:22:51;26.60;99.90
13426;DHT22;6785;57.918;12.530;2022-07-01T11:25:19;26.60;99.90
13426;DHT22;6785;57.918;12.530;2022-07-01T11:27:48;26.50;99.90
13426;DHT22;6785;57.918;12.530;2022-07-01T11:30:17;26.70;99.90
13426;DHT22;6785;57.918;12.530;2022-07-01T11:32:47;27.00;99.90
13426;DHT22;6785;57.918;12.530;2022-07-01T11:35:15;27.10;99.90
13426;DHT22;6785;57.918;12.530;2022-07-01T11:38:07;27.20;99.90
13426;DHT22;6785;57.918;12.530;2022-07-01T11:40:53;27.10;99.90
13426;DHT22;6785;57.918;12.530;2022-07-01T11:43:23;27.20;99.90
13426;DHT22;6785;57.918;12.530;2022-07-01T11:45:51;27.20;99.90
13426;DHT22;6785;57.918;12.530;2022-07-01T11:48:32;27.20;99.90
13426;DHT22;6785;57.918;12.530;2022-07-01T11:51:01;27.40;99.90
13426;DHT22;6785;57.918;12.530;2022-07-01T11:53:28;27.30;99.90
13426;DHT22;6785;57.918;12.530;2022-07-01T11:55:55;27.30;99.90
13426;DHT22;6785;57.918;12.530;2022-07-01T11:58:22;27.50;99.90
13426;DHT22;6785;57.918;12.530;2022-07-01T12:00:50;27.60;99.90
13426;DHT22;6785;57.918;12.530;2022-07-01T12:03:31;27.50;99.90
13426;DHT22;6785;57.918;12.530;2022-07-01T12:05:58;27.40;99.90
13426;DHT22;6785;57.918;12.530;2022-07-01T12:08:25;27.40;99.90
13426;DHT22;6785;57.918;12.530;2022-07-01T12:10:52;27.50;99.90
13426;DHT22;6785;57.918;12.530;2022-07-01T12:13:23;27.50;99.90
13426;DHT22;6785;57.918;12.530;2022-07-01T12:15:51;27.50;99.90
13426;DHT22;6785;57.918;12.530;2022-07-01T12:18:19;27.60;99.90
13426;DHT22;6785;57.918;12.530;2022-07-01T12:20:50;27.70;99.90
13426;DHT22;6785;57.918;12.530;2022-07-01T12:23:17;27.60;99.90
13426;DHT22;6785;57.918;12.530;2022-07-01T12:25:49;27.50;99.90
13426;DHT22;6785;57.918;12.530;2022-07-01T12:28:27;27.40;99.90
13426;DHT22;6785;57.918;12.530;2022-07-01T12:31:06;27.50;99.90
13426;DHT22;6785;57.918;12.530;2022-07-01T12:33:37;27.60;99.90
13426;DHT22;6785;57.918;12.530;2022-07-01T12:36:05;27.70;99.90
13426;DHT22;6785;57.918;12.530;2022-07-01T12:38:32;27.40;99.90
13426;DHT22;6785;57.918;12.530;2022-07-01T12:41:00;27.10;99.90
13426;DHT22;6785;57.918;12.530;2022-07-01T12:43:29;27.10;99.90
13426;DHT22;6785;57.918;12.530;2022-07-01T12:45:58;27.20;99.90
13426;DHT22;6785;57.918;12.530;2022-07-01T12:48:26;27.40;99.90
13426;DHT22;6785;57.918;12.530;2022-07-01T12:50:55;27.40;99.90
13426;DHT22;6785;57.918;12.530;2022-07-01T12:53:23;27.50;99.90
13426;DHT22;6785;57.918;12.530;2022-07-01T12:55:51;27.50;99.90
13426;DHT22;6785;57.918;12.530;2022-07-01T12:58:20;27.70;99.90
13426;DHT22;6785;57.918;12.530;2022-07-01T13:00:48;27.40;99.90
13426;DHT22;6785;57.918;12.530;2022-07-01T13:03:19;27.40;99.90
13426;DHT22;6785;57.918;12.530;2022-07-01T13:05:49;27.40;99.90
13426;DHT22;6785;57.918;12.530;2022-07-01T13:08:16;27.30;99.90
13426;DHT22;6785;57.918;12.530;2022-07-01T13:10:44;27.20;99.90
13426;DHT22;6785;57.918;12.530;2022-07-01T13:13:12;26.90;99.90
13426;DHT22;6785;57.918;12.530;2022-07-01T13:15:40;26.80;99.90
13426;DHT22;6785;57.918;12.530;2022-07-01T13:18:09;26.90;99.90
13426;DHT22;6785;57.918;12.530;2022-07-01T13:20:36;26.80;99.90
13426;DHT22;6785;57.918;12.530;2022-07-01T13:23:05;26.90;99.90
13426;DHT22;6785;57.918;12.530;2022-07-01T13:25:32;27.30;99.90
13426;DHT22;6785;57.918;12.530;2022-07-01T13:27:59;27.40;99.90
13426;DHT22;6785;57.918;12.530;2022-07-01T13:30:26;27.60;99.90
13426;DHT22;6785;57.918;12.530;2022-07-01T13:32:52;27.90;99.90
13426;DHT22;6785;57.918;12.530;2022-07-01T13:35:20;28.00;99.90
13426;DHT22;6785;57.918;12.530;2022-07-01T13:37:48;28.10;99.90
13426;DHT22;6785;57.918;12.530;2022-07-01T13:40:16;27.80;99.90
13426;DHT22;6785;57.918;12.530;2022-07-01T13:42:43;27.50;99.90
13426;DHT22;6785;57.918;12.530;2022-07-01T13:45:10;27.30;99.90
13426;DHT22;6785;57.918;12.530;2022-07-01T13:47:39;27.30;99.90
13426;DHT22;6785;57.918;12.530;2022-07-01T13:50:07;27.60;99.90
13426;DHT22;6785;57.918;12.530;2022-07-01T13:52:33;27.80;99.90
13426;DHT22;6785;57.918;12.530;2022-07-01T13:55:00;28.00;99.90
13426;DHT22;6785;57.918;12.530;2022-07-01T13:57:28;28.30;99.90
13426;DHT22;6785;57.918;12.530;2022-07-01T13:59:55;28.30;99.90
13426;DHT22;6785;57.918;12.530;2022-07-01T14:02:23;28.00;99.90
13426;DHT22;6785;57.918;12.530;2022-07-01T14:04:50;28.00;99.90
13426;DHT22;6785;57.918;12.530;2022-07-01T14:07:17;28.10;99.90
13426;DHT22;6785;57.918;12.530;2022-07-01T14:09:44;27.90;99.90
13426;DHT22;6785;57.918;12.530;2022-07-01T14:12:12;27.90;99.90
13426;DHT22;6785;57.918;12.530;2022-07-01T14:14:42;28.00;99.90
13426;DHT22;6785;57.918;12.530;2022-07-01T14:17:09;28.20;99.90
13426;DHT22;6785;57.918;12.530;2022-07-01T14:19:36;28.20;99.90
13426;DHT22;6785;57.918;12.530;2022-07-01T14:22:03;28.30;99.90
13426;DHT22;6785;57.918;12.530;2022-07-01T14:24:30;27.90;99.90
13426;DHT22;6785;57.918;12.530;2022-07-01T14:26:57;27.80;99.90
13426;DHT22;6785;57.918;12.530;2022-07-01T14:29:24;27.90;99.90
13426;DHT22;6785;57.918;12.530;2022-07-01T14:31:52;27.90;99.90
13426;DHT22;6785;57.918;12.530;2022-07-01T14:34:20;27.70;99.90
13426;DHT22;6785;57.918;12.530;2022-07-01T14:36:47;27.50;99.90
13426;DHT22;6785;57.918;12.530;2022-07-01T14:39:14;27.40;99.90
13426;DHT22;6785;57.918;12.530;2022-07-01T14:41:41;27.40;99.90
13426;DHT22;6785;57.918;12.530;2022-07-01T14:44:07;27.40;99.90
13426;DHT22;6785;57.918;12.530;2022-07-01T14:46:34;27.20;99.90
13426;DHT22;6785;57.918;12.530;2022-07-01T14:49:02;27.20;99.90
13426;DHT22;6785;57.918;12.530;2022-07-01T14:51:29;27.10;99.90
13426;DHT22;6785;57.918;12.530;2022-07-01T14:53:56;27.00;99.90
13426;DHT22;6785;57.918;12.530;2022-07-01T14:56:23;27.10;99.90
13426;DHT22;6785;57.918;12.530;2022-07-01T14:58:50;27.00;99.90
13426;DHT22;6785;57.918;12.530;2022-07-01T15:01:17;27.00;99.90
13426;DHT22;6785;57.918;12.530;2022-07-01T15:03:44;26.80;99.90
13426;DHT22;6785;57.918;12.530;2022-07-01T15:06:12;26.70;99.90
13426;DHT22;6785;57.918;12.530;2022-07-01T15:08:39;26.70;99.90
13426;DHT22;6785;57.918;12.530;2022-07-01T15:11:06;26.70;99.90
13426;DHT22;6785;57.918;12.530;2022-07-01T15:13:33;26.70;99.90
13426;DHT22;6785;57.918;12.530;2022-07-01T15:16:03;26.70;99.90
13426;DHT22;6785;57.918;12.530;2022-07-01T15:18:30;26.60;99.90
13426;DHT22;6785;57.918;12.530;2022-07-01T15:20:58;26.50;99.90
13426;DHT22;6785;57.918;12.530;2022-07-01T15:23:27;26.50;99.90
13426;DHT22;6785;57.918;12.530;2022-07-01T15:25:54;26.50;99.90
13426;DHT22;6785;57.918;12.530;2022-07-01T15:28:21;26.50;99.90
13426;DHT22;6785;57.918;12.530;2022-07-01T15:30:50;26.60;99.90
13426;DHT22;6785;57.918;12.530;2022-07-01T15:33:17;26.80;99.90
13426;DHT22;6785;57.918;12.530;2022-07-01T15:35:44;26.80;99.90
13426;DHT22;6785;57.918;12.530;2022-07-01T15:38:10;26.70;99.90